sensor_id;sensor_type;location;lat;lon;timestamp;pressure;altitude;pressure_sealevel;temperature;humidity
79538;BME280;68989;52.032;5.152;2023-07-31T00:01:29;101050.85;;;23.92;51.90
79538;BME280;68989;52.032;5.152;2023-07-31T00:03:56;101048.15;;;23.92;51.95
79538;BME280;68989;52.032;5.152;2023-07-31T00:06:23;101044.40;;;23.95;51.98
79538;BME280;68989;52.032;5.152;2023-07-31T00:08:50;101044.69;;;23.95;52.06
79538;BME280;68989;52.032;5.152;2023-07-31T00:11:16;101033.93;;;23.95;52.05
79538;BME280;68989;52.032;5.152;2023-07-31T00:13:43;101027.19;;;23.96;52.15
79538;BME280;68989;52.032;5.152;2023-07-31T00:16:10;101023.60;;;23.96;52.26
79538;BME280;68989;52.032;5.152;2023-07-31T00:18:36;101020.91;;;23.97;52.60
79538;BME280;68989;52.032;5.152;2023-07-31T00:21:03;101020.97;;;23.93;52.95
79538;BME280;68989;52.032;5.152;2023-07-31T00:23:30;101022.48;;;23.95;53.10
79538;BME280;68989;52.032;5.152;2023-07-31T00:25:57;101024.07;;;23.93;53.17
79538;BME280;68989;52.032;5.152;2023-07-31T00:28:24;101024.61;;;23.94;53.09
79538;BME280;68989;52.032;5.152;2023-07-31T00:30:51;101020.02;;;23.95;53.25
79538;BME280;68989;52.032;5.152;2023-07-31T00:33:18;101023.84;;;23.97;53.30
79538;BME280;68989;52.032;5.152;2023-07-31T00:35:46;101020.07;;;23.98;53.41
79538;BME280;68989;52.032;5.152;2023-07-31T00:38:13;101011.00;;;23.99;53.41
79538;BME280;68989;52.032;5.152;2023-07-31T00:40:40;101018.79;;;23.99;53.55
79538;BME280;68989;52.032;5.152;2023-07-31T00:43:06;101017.31;;;23.98;53.76
79538;BME280;68989;52.032;5.152;2023-07-31T00:45:33;101026.19;;;23.97;53.90
79538;BME280;68989;52.032;5.152;2023-07-31T00:48:01;101016.15;;;23.96;54.00
79538;BME280;68989;52.032;5.152;2023-07-31T00:50:29;101020.98;;;23.96;53.94
79538;BME280;68989;52.032;5.152;2023-07-31T00:52:56;101016.87;;;23.96;53.88
79538;BME280;68989;52.032;5.152;2023-07-31T00:55:24;101022.36;;;23.97;53.97
79538;BME280;68989;52.032;5.152;2023-07-31T00:57:52;101016.82;;;23.96;54.16
79538;BME280;68989;52.032;5.152;2023-07-31T01:01:39;101017.70;;;23.96;54.21
79538;BME280;68989;52.032;5.152;2023-07-31T01:04:07;101014.27;;;23.95;54.12
79538;BME280;68989;52.032;5.152;2023-07-31T01:06:38;101014.20;;;23.95;54.09
79538;BME280;68989;52.032;5.152;2023-07-31T01:09:21;101019.88;;;23.95;54.14
79538;BME280;68989;52.032;5.152;2023-07-31T01:12:01;101021.11;;;23.96;54.08
79538;BME280;68989;52.032;5.152;2023-07-31T01:14:28;101010.77;;;23.95;54.04
79538;BME280;68989;52.032;5.152;2023-07-31T01:16:56;101013.11;;;23.95;54.13
79538;BME280;68989;52.032;5.152;2023-07-31T01:19:25;101015.50;;;23.95;54.15
79538;BME280;68989;52.032;5.152;2023-07-31T01:22:21;101017.44;;;23.95;54.24
79538;BME280;68989;52.032;5.152;2023-07-31T01:25:00;101014.93;;;23.94;54.19
79538;BME280;68989;52.032;5.152;2023-07-31T01:27:35;101011.58;;;23.93;54.31
79538;BME280;68989;52.032;5.152;2023-07-31T01:30:11;101007.14;;;23.92;54.39
79538;BME280;68989;52.032;5.152;2023-07-31T01:32:43;101013.17;;;23.91;54.33
79538;BME280;68989;52.032;5.152;2023-07-31T01:35:13;101007.68;;;23.92;54.35
79538;BME280;68989;52.032;5.152;2023-07-31T01:37:40;101011.08;;;23.92;54.31
79538;BME280;68989;52.032;5.152;2023-07-31T01:40:09;101015.89;;;23.92;54.30
79538;BME280;68989;52.032;5.152;2023-07-31T01:42:37;101018.47;;;23.91;54.49
79538;BME280;68989;52.032;5.152;2023-07-31T01:45:05;101019.01;;;23.91;54.34
79538;BME280;68989;52.032;5.152;2023-07-31T01:47:32;101019.72;;;23.89;54.49
79538;BME280;68989;52.032;5.152;2023-07-31T01:49:59;101018.21;;;23.87;54.44
79538;BME280;68989;52.032;5.152;2023-07-31T01:52:26;101016.99;;;23.87;54.61
79538;BME280;68989;52.032;5.152;2023-07-31T01:54:53;101008.25;;;23.86;54.63
79538;BME280;68989;52.032;5.152;2023-07-31T01:57:21;101002.35;;;23.85;54.64
79538;BME280;68989;52.032;5.152;2023-07-31T01:59:48;100996.93;;;23.85;54.64
79538;BME280;68989;52.032;5.152;2023-07-31T02:02:16;100994.51;;;23.84;54.55
79538;BME280;68989;52.032;5.152;2023-07-31T02:04:43;100989.67;;;23.84;54.49
79538;BME280;68989;52.032;5.152;2023-07-31T02:07:10;100986.18;;;23.84;54.56
79538;BME280;68989;52.032;5.152;2023-07-31T02:09:38;100985.83;;;23.84;54.56
79538;BME280;68989;52.032;5.152;2023-07-31T02:12:05;100984.18;;;23.84;54.54
79538;BME280;68989;52.032;5.152;2023-07-31T02:14:32;100978.65;;;23.82;54.45
79538;BME280;68989;52.032;5.152;2023-07-31T02:16:59;100974.05;;;23.82;54.35
79538;BME280;68989;52.032;5.152;2023-07-31T02:19:26;100965.91;;;23.83;54.46
79538;BME280;68989;52.032;5.152;2023-07-31T02:21:53;100966.65;;;23.82;54.37
79538;BME280;68989;52.032;5.152;2023-07-31T02:24:20;100963.83;;;23.81;54.55
79538;BME280;68989;52.032;5.152;2023-07-31T02:26:47;100965.81;;;23.82;54.48
79538;BME280;68989;52.032;5.152;2023-07-31T02:29:13;100963.48;;;23.82;54.27
79538;BME280;68989;52.032;5.152;2023-07-31T02:31:40;100960.74;;;23.83;54.28
79538;BME280;68989;52.032;5.152;2023-07-31T02:34:08;100955.17;;;23.83;54.36
79538;BME280;68989;52.032;5.152;2023-07-31T02:36:34;100958.33;;;23.83;54.45
79538;BME280;68989;52.032;5.152;2023-07-31T02:39:01;100958.97;;;23.82;54.41
79538;BME280;68989;52.032;5.152;2023-07-31T02:41:28;100954.13;;;23.82;54.39
79538;BME280;68989;52.032;5.152;2023-07-31T02:43:55;100955.40;;;23.81;54.52
79538;BME280;68989;52.032;5.152;2023-07-31T02:46:22;100956.09;;;23.80;54.52
79538;BME280;68989;52.032;5.152;2023-07-31T02:48:49;100954.96;;;23.80;54.46
79538;BME280;68989;52.032;5.152;2023-07-31T02:51:15;100950.51;;;23.78;54.71
79538;BME280;68989;52.032;5.152;2023-07-31T02:53:43;100952.40;;;23.76;54.56
79538;BME280;68989;52.032;5.152;2023-07-31T02:56:11;100944.83;;;23.76;54.78
79538;BME280;68989;52.032;5.152;2023-07-31T02:58:38;100947.42;;;23.75;54.80
79538;BME280;68989;52.032;5.152;2023-07-31T03:01:06;100944.84;;;23.74;54.71
79538;BME280;68989;52.032;5.152;2023-07-31T03:03:33;100942.06;;;23.74;54.65
79538;BME280;68989;52.032;5.152;2023-07-31T03:06:00;100939.90;;;23.73;54.82
79538;BME280;68989;52.032;5.152;2023-07-31T03:08:27;100941.17;;;23.71;54.78
79538;BME280;68989;52.032;5.152;2023-07-31T03:10:54;100937.16;;;23.70;54.78
79538;BME280;68989;52.032;5.152;2023-07-31T03:13:20;100943.22;;;23.69;54.75
79538;BME280;68989;52.032;5.152;2023-07-31T03:15:47;100938.23;;;23.69;54.69
79538;BME280;68989;52.032;5.152;2023-07-31T03:18:15;100933.90;;;23.69;54.76
79538;BME280;68989;52.032;5.152;2023-07-31T03:20:43;100934.08;;;23.68;54.74
79538;BME280;68989;52.032;5.152;2023-07-31T03:23:11;100935.46;;;23.68;54.72
79538;BME280;68989;52.032;5.152;2023-07-31T03:25:38;100937.69;;;23.67;54.58
79538;BME280;68989;52.032;5.152;2023-07-31T03:28:05;100931.39;;;23.66;54.66
79538;BME280;68989;52.032;5.152;2023-07-31T03:30:32;100931.80;;;23.65;54.65
79538;BME280;68989;52.032;5.152;2023-07-31T03:32:59;100930.44;;;23.65;54.50
79538;BME280;68989;52.032;5.152;2023-07-31T03:35:27;100932.06;;;23.64;54.55
79538;BME280;68989;52.032;5.152;2023-07-31T03:37:54;100925.88;;;23.62;54.58
79538;BME280;68989;52.032;5.152;2023-07-31T03:40:21;100924.60;;;23.61;54.60
79538;BME280;68989;52.032;5.152;2023-07-31T03:42:48;100923.33;;;23.61;54.57
79538;BME280;68989;52.032;5.152;2023-07-31T03:45:15;100923.26;;;23.63;54.43
79538;BME280;68989;52.032;5.152;2023-07-31T03:47:43;100915.68;;;23.58;54.59
79538;BME280;68989;52.032;5.152;2023-07-31T03:50:11;100921.38;;;23.61;54.46
79538;BME280;68989;52.032;5.152;2023-07-31T03:52:37;100919.77;;;23.61;54.43
79538;BME280;68989;52.032;5.152;2023-07-31T03:55:05;100921.51;;;23.57;54.52
79538;BME280;68989;52.032;5.152;2023-07-31T03:57:32;100918.54;;;23.60;54.49
79538;BME280;68989;52.032;5.152;2023-07-31T03:59:59;100915.79;;;23.60;54.48
79538;BME280;68989;52.032;5.152;2023-07-31T04:02:26;100908.47;;;23.60;54.44
79538;BME280;68989;52.032;5.152;2023-07-31T04:04:53;100904.96;;;23.59;54.47
79538;BME280;68989;52.032;5.152;2023-07-31T04:07:20;100897.17;;;23.58;54.41
79538;BME280;68989;52.032;5.152;2023-07-31T04:09:46;100897.33;;;23.56;54.50
79538;BME280;68989;52.032;5.152;2023-07-31T04:12:14;100896.11;;;23.55;54.46
79538;BME280;68989;52.032;5.152;2023-07-31T04:14:41;100893.68;;;23.54;54.48
79538;BME280;68989;52.032;5.152;2023-07-31T04:17:08;100888.97;;;23.54;54.55
79538;BME280;68989;52.032;5.152;2023-07-31T04:19:35;100881.35;;;23.53;54.54
79538;BME280;68989;52.032;5.152;2023-07-31T04:22:04;100881.34;;;23.53;54.46
79538;BME280;68989;52.032;5.152;2023-07-31T04:24:31;100881.15;;;23.52;54.58
79538;BME280;68989;52.032;5.152;2023-07-31T04:26:58;100880.32;;;23.48;54.73
79538;BME280;68989;52.032;5.152;2023-07-31T04:29:25;100883.33;;;23.48;54.72
79538;BME280;68989;52.032;5.152;2023-07-31T04:31:52;100879.89;;;23.47;54.68
79538;BME280;68989;52.032;5.152;2023-07-31T04:34:19;100876.78;;;23.46;54.84
79538;BME280;68989;52.032;5.152;2023-07-31T04:36:47;100876.92;;;23.46;54.76
79538;BME280;68989;52.032;5.152;2023-07-31T04:39:14;100882.28;;;23.45;54.84
79538;BME280;68989;52.032;5.152;2023-07-31T04:41:41;100879.36;;;23.42;54.92
79538;BME280;68989;52.032;5.152;2023-07-31T04:44:08;100875.67;;;23.39;54.79
79538;BME280;68989;52.032;5.152;2023-07-31T04:46:34;100873.58;;;23.42;54.83
79538;BME280;68989;52.032;5.152;2023-07-31T04:49:01;100870.36;;;23.43;54.98
79538;BME280;68989;52.032;5.152;2023-07-31T04:51:28;100862.37;;;23.44;54.86
79538;BME280;68989;52.032;5.152;2023-07-31T04:53:55;100858.62;;;23.44;54.92
79538;BME280;68989;52.032;5.152;2023-07-31T04:56:22;100856.35;;;23.40;54.93
79538;BME280;68989;52.032;5.152;2023-07-31T04:58:49;100853.94;;;23.42;54.99
79538;BME280;68989;52.032;5.152;2023-07-31T05:01:16;100854.77;;;23.29;55.96
79538;BME280;68989;52.032;5.152;2023-07-31T05:03:44;100853.95;;;23.27;55.83
79538;BME280;68989;52.032;5.152;2023-07-31T05:06:11;100855.80;;;23.28;55.76
79538;BME280;68989;52.032;5.152;2023-07-31T05:08:38;100854.35;;;23.27;55.92
79538;BME280;68989;52.032;5.152;2023-07-31T05:11:05;100855.25;;;23.28;55.65
79538;BME280;68989;52.032;5.152;2023-07-31T05:13:31;100856.72;;;23.30;55.56
79538;BME280;68989;52.032;5.152;2023-07-31T05:15:58;100848.16;;;23.31;55.69
79538;BME280;68989;52.032;5.152;2023-07-31T05:18:25;100847.96;;;23.32;55.58
79538;BME280;68989;52.032;5.152;2023-07-31T05:20:52;100851.73;;;23.33;55.64
79538;BME280;68989;52.032;5.152;2023-07-31T05:23:19;100852.87;;;23.33;55.71
79538;BME280;68989;52.032;5.152;2023-07-31T05:25:46;100847.55;;;23.31;55.81
79538;BME280;68989;52.032;5.152;2023-07-31T05:28:14;100837.99;;;23.29;55.62
79538;BME280;68989;52.032;5.152;2023-07-31T05:30:40;100834.55;;;23.28;55.80
79538;BME280;68989;52.032;5.152;2023-07-31T05:33:07;100831.77;;;23.28;55.74
79538;BME280;68989;52.032;5.152;2023-07-31T05:35:34;100820.17;;;23.29;55.65
79538;BME280;68989;52.032;5.152;2023-07-31T05:38:01;100819.83;;;23.30;55.86
79538;BME280;68989;52.032;5.152;2023-07-31T05:40:27;100820.19;;;23.29;55.95
79538;BME280;68989;52.032;5.152;2023-07-31T05:42:54;100814.15;;;23.30;55.89
79538;BME280;68989;52.032;5.152;2023-07-31T05:45:21;100815.16;;;23.31;55.96
79538;BME280;68989;52.032;5.152;2023-07-31T05:47:48;100811.14;;;23.31;56.04
79538;BME280;68989;52.032;5.152;2023-07-31T05:50:15;100810.13;;;23.28;56.20
79538;BME280;68989;52.032;5.152;2023-07-31T05:52:41;100808.43;;;23.29;56.05
79538;BME280;68989;52.032;5.152;2023-07-31T05:55:08;100804.82;;;23.30;56.17
79538;BME280;68989;52.032;5.152;2023-07-31T05:57:36;100805.54;;;23.29;56.35
79538;BME280;68989;52.032;5.152;2023-07-31T06:00:04;100805.20;;;23.31;57.17
79538;BME280;68989;52.032;5.152;2023-07-31T06:02:32;100803.45;;;23.33;57.03
79538;BME280;68989;52.032;5.152;2023-07-31T06:04:59;100799.73;;;23.35;56.83
79538;BME280;68989;52.032;5.152;2023-07-31T06:07:26;100801.51;;;23.36;56.62
79538;BME280;68989;52.032;5.152;2023-07-31T06:09:53;100797.65;;;23.36;56.48
79538;BME280;68989;52.032;5.152;2023-07-31T06:12:20;100798.19;;;23.32;56.65
79538;BME280;68989;52.032;5.152;2023-07-31T06:14:47;100791.54;;;23.31;56.68
79538;BME280;68989;52.032;5.152;2023-07-31T06:17:14;100790.24;;;23.30;56.86
79538;BME280;68989;52.032;5.152;2023-07-31T06:19:40;100794.37;;;23.32;56.72
79538;BME280;68989;52.032;5.152;2023-07-31T06:22:07;100786.24;;;23.31;56.61
79538;BME280;68989;52.032;5.152;2023-07-31T06:24:34;100783.74;;;23.33;56.64
79538;BME280;68989;52.032;5.152;2023-07-31T06:27:01;100782.33;;;23.34;56.55
79538;BME280;68989;52.032;5.152;2023-07-31T06:29:28;100780.33;;;23.35;56.48
79538;BME280;68989;52.032;5.152;2023-07-31T06:31:55;100777.96;;;23.36;56.48
79538;BME280;68989;52.032;5.152;2023-07-31T06:34:22;100779.47;;;23.36;56.54
79538;BME280;68989;52.032;5.152;2023-07-31T06:36:48;100770.08;;;23.35;56.72
79538;BME280;68989;52.032;5.152;2023-07-31T06:39:15;100771.04;;;23.34;56.88
79538;BME280;68989;52.032;5.152;2023-07-31T06:41:42;100767.92;;;23.35;56.83
79538;BME280;68989;52.032;5.152;2023-07-31T06:44:10;100763.44;;;23.34;57.06
79538;BME280;68989;52.032;5.152;2023-07-31T06:46:38;100758.38;;;23.34;57.39
79538;BME280;68989;52.032;5.152;2023-07-31T06:49:05;100753.87;;;23.36;57.45
79538;BME280;68989;52.032;5.152;2023-07-31T06:51:31;100754.31;;;23.37;57.68
79538;BME280;68989;52.032;5.152;2023-07-31T06:53:58;100750.15;;;23.40;57.72
79538;BME280;68989;52.032;5.152;2023-07-31T06:56:25;100744.91;;;23.43;57.87
79538;BME280;68989;52.032;5.152;2023-07-31T06:58:52;100748.18;;;23.46;57.84
79538;BME280;68989;52.032;5.152;2023-07-31T07:01:20;100740.41;;;23.48;57.95
79538;BME280;68989;52.032;5.152;2023-07-31T07:03:47;100739.01;;;23.48;58.06
79538;BME280;68989;52.032;5.152;2023-07-31T07:06:15;100744.95;;;23.50;57.83
79538;BME280;68989;52.032;5.152;2023-07-31T07:08:42;100736.08;;;23.52;57.92
79538;BME280;68989;52.032;5.152;2023-07-31T07:11:09;100745.72;;;23.53;57.79
79538;BME280;68989;52.032;5.152;2023-07-31T07:13:36;100746.04;;;23.55;58.00
79538;BME280;68989;52.032;5.152;2023-07-31T07:16:03;100742.18;;;23.56;58.01
79538;BME280;68989;52.032;5.152;2023-07-31T07:18:30;100741.07;;;23.57;57.88
79538;BME280;68989;52.032;5.152;2023-07-31T07:20:57;100746.87;;;23.58;58.05
79538;BME280;68989;52.032;5.152;2023-07-31T07:23:25;100748.40;;;23.58;57.82
79538;BME280;68989;52.032;5.152;2023-07-31T07:25:52;100745.62;;;23.59;57.79
79538;BME280;68989;52.032;5.152;2023-07-31T07:28:19;100742.76;;;23.60;57.72
79538;BME280;68989;52.032;5.152;2023-07-31T07:30:51;100742.21;;;23.62;57.71
79538;BME280;68989;52.032;5.152;2023-07-31T07:33:18;100747.61;;;23.64;57.71
79538;BME280;68989;52.032;5.152;2023-07-31T07:35:44;100740.96;;;23.66;57.64
79538;BME280;68989;52.032;5.152;2023-07-31T07:38:11;100740.91;;;23.68;57.70
79538;BME280;68989;52.032;5.152;2023-07-31T07:40:39;100736.66;;;23.70;57.72
79538;BME280;68989;52.032;5.152;2023-07-31T07:43:05;100739.65;;;23.72;58.02
79538;BME280;68989;52.032;5.152;2023-07-31T07:45:33;100739.08;;;23.73;58.25
79538;BME280;68989;52.032;5.152;2023-07-31T07:47:59;100742.04;;;23.70;58.55
79538;BME280;68989;52.032;5.152;2023-07-31T07:50:26;100740.94;;;23.71;58.29
79538;BME280;68989;52.032;5.152;2023-07-31T07:52:53;100740.15;;;23.73;58.18
79538;BME280;68989;52.032;5.152;2023-07-31T07:55:20;100735.48;;;23.75;58.33
79538;BME280;68989;52.032;5.152;2023-07-31T07:57:48;100739.24;;;23.77;58.30
79538;BME280;68989;52.032;5.152;2023-07-31T08:00:16;100742.00;;;23.78;58.10
79538;BME280;68989;52.032;5.152;2023-07-31T08:02:43;100742.36;;;23.78;58.27
79538;BME280;68989;52.032;5.152;2023-07-31T08:05:10;100735.36;;;23.79;58.22
79538;BME280;68989;52.032;5.152;2023-07-31T08:07:37;100733.90;;;23.81;58.11
79538;BME280;68989;52.032;5.152;2023-07-31T08:10:04;100728.13;;;23.83;58.15
79538;BME280;68989;52.032;5.152;2023-07-31T08:12:31;100729.94;;;23.86;58.19
79538;BME280;68989;52.032;5.152;2023-07-31T08:14:58;100726.58;;;23.88;58.20
79538;BME280;68989;52.032;5.152;2023-07-31T08:17:25;100716.94;;;23.91;58.66
79538;BME280;68989;52.032;5.152;2023-07-31T08:19:52;100719.95;;;23.95;59.04
79538;BME280;68989;52.032;5.152;2023-07-31T08:22:18;100724.13;;;23.99;58.87
79538;BME280;68989;52.032;5.152;2023-07-31T08:24:45;100725.26;;;24.01;58.87
79538;BME280;68989;52.032;5.152;2023-07-31T08:27:13;100720.27;;;24.04;59.05
79538;BME280;68989;52.032;5.152;2023-07-31T08:29:40;100716.01;;;24.03;59.41
79538;BME280;68989;52.032;5.152;2023-07-31T08:32:07;100715.62;;;24.03;59.72
79538;BME280;68989;52.032;5.152;2023-07-31T08:34:34;100710.64;;;24.05;59.74
79538;BME280;68989;52.032;5.152;2023-07-31T08:37:00;100712.90;;;24.07;59.88
79538;BME280;68989;52.032;5.152;2023-07-31T08:39:27;100714.45;;;24.10;60.45
79538;BME280;68989;52.032;5.152;2023-07-31T08:41:58;100711.53;;;24.15;60.50
79538;BME280;68989;52.032;5.152;2023-07-31T08:44:25;100714.21;;;24.18;60.48
79538;BME280;68989;52.032;5.152;2023-07-31T08:46:52;100708.84;;;24.21;60.48
79538;BME280;68989;52.032;5.152;2023-07-31T08:49:19;100710.51;;;24.22;60.01
79538;BME280;68989;52.032;5.152;2023-07-31T08:51:50;100706.03;;;24.23;59.56
79538;BME280;68989;52.032;5.152;2023-07-31T08:54:17;100705.51;;;24.28;59.19
79538;BME280;68989;52.032;5.152;2023-07-31T08:56:44;100705.90;;;24.32;59.10
79538;BME280;68989;52.032;5.152;2023-07-31T08:59:13;100705.51;;;24.37;59.62
79538;BME280;68989;52.032;5.152;2023-07-31T09:01:45;100708.75;;;24.42;60.12
79538;BME280;68989;52.032;5.152;2023-07-31T09:04:16;100714.64;;;24.45;59.76
79538;BME280;68989;52.032;5.152;2023-07-31T09:06:47;100714.29;;;24.46;59.69
79538;BME280;68989;52.032;5.152;2023-07-31T09:09:16;100710.20;;;24.47;58.90
79538;BME280;68989;52.032;5.152;2023-07-31T09:11:43;100719.50;;;24.47;58.94
79538;BME280;68989;52.032;5.152;2023-07-31T09:14:10;100717.74;;;24.47;58.68
79538;BME280;68989;52.032;5.152;2023-07-31T09:16:51;100713.64;;;24.47;58.44
79538;BME280;68989;52.032;5.152;2023-07-31T09:19:25;100705.92;;;24.44;58.76
79538;BME280;68989;52.032;5.152;2023-07-31T09:21:52;100707.23;;;24.45;58.73
79538;BME280;68989;52.032;5.152;2023-07-31T09:24:25;100702.61;;;24.48;59.49
79538;BME280;68989;52.032;5.152;2023-07-31T09:26:54;100702.68;;;24.52;60.14
79538;BME280;68989;52.032;5.152;2023-07-31T09:29:22;100701.27;;;24.56;60.54
79538;BME280;68989;52.032;5.152;2023-07-31T09:31:51;100696.05;;;24.57;61.37
79538;BME280;68989;52.032;5.152;2023-07-31T09:34:18;100691.76;;;24.60;61.12
79538;BME280;68989;52.032;5.152;2023-07-31T09:36:48;100696.79;;;24.70;60.88
79538;BME280;68989;52.032;5.152;2023-07-31T09:39:16;100695.71;;;24.76;60.65
79538;BME280;68989;52.032;5.152;2023-07-31T09:41:46;100701.37;;;24.80;60.42
79538;BME280;68989;52.032;5.152;2023-07-31T09:44:14;100697.80;;;24.83;59.78
79538;BME280;68989;52.032;5.152;2023-07-31T09:46:46;100699.57;;;24.84;59.60
79538;BME280;68989;52.032;5.152;2023-07-31T09:49:14;100698.16;;;24.84;59.34
79538;BME280;68989;52.032;5.152;2023-07-31T09:51:42;100694.45;;;24.84;59.09
79538;BME280;68989;52.032;5.152;2023-07-31T09:54:10;100692.23;;;24.82;59.07
79538;BME280;68989;52.032;5.152;2023-07-31T09:56:37;100693.84;;;24.83;59.37
79538;BME280;68989;52.032;5.152;2023-07-31T09:59:08;100689.70;;;24.85;59.69
79538;BME280;68989;52.032;5.152;2023-07-31T10:01:37;100691.13;;;24.83;60.03
79538;BME280;68989;52.032;5.152;2023-07-31T10:04:05;100690.46;;;24.85;60.20
79538;BME280;68989;52.032;5.152;2023-07-31T10:06:35;100689.45;;;24.88;60.09
79538;BME280;68989;52.032;5.152;2023-07-31T10:09:05;100686.13;;;24.90;59.49
79538;BME280;68989;52.032;5.152;2023-07-31T10:11:37;100684.03;;;24.92;59.40
79538;BME280;68989;52.032;5.152;2023-07-31T10:14:05;100686.86;;;24.92;58.85
79538;BME280;68989;52.032;5.152;2023-07-31T10:16:37;100685.92;;;24.93;58.82
79538;BME280;68989;52.032;5.152;2023-07-31T10:19:05;100693.64;;;24.95;58.74
79538;BME280;68989;52.032;5.152;2023-07-31T10:21:32;100693.33;;;24.94;58.33
79538;BME280;68989;52.032;5.152;2023-07-31T10:24:01;100700.30;;;24.94;58.16
79538;BME280;68989;52.032;5.152;2023-07-31T10:26:31;100694.55;;;24.94;58.16
79538;BME280;68989;52.032;5.152;2023-07-31T10:28:58;100693.48;;;24.94;58.40
79538;BME280;68989;52.032;5.152;2023-07-31T10:31:27;100686.90;;;24.97;58.68
79538;BME280;68989;52.032;5.152;2023-07-31T10:33:55;100692.31;;;24.98;58.84
79538;BME280;68989;52.032;5.152;2023-07-31T10:36:24;100692.62;;;24.99;58.74
79538;BME280;68989;52.032;5.152;2023-07-31T10:38:51;100690.60;;;25.00;58.59
79538;BME280;68989;52.032;5.152;2023-07-31T10:41:18;100688.64;;;25.01;58.80
79538;BME280;68989;52.032;5.152;2023-07-31T10:43:46;100685.76;;;25.03;59.23
79538;BME280;68989;52.032;5.152;2023-07-31T10:46:14;100689.88;;;25.07;59.43
79538;BME280;68989;52.032;5.152;2023-07-31T10:48:42;100692.83;;;25.11;59.88
79538;BME280;68989;52.032;5.152;2023-07-31T10:51:11;100690.65;;;25.17;60.35
79538;BME280;68989;52.032;5.152;2023-07-31T10:53:39;100688.85;;;25.21;60.11
79538;BME280;68989;52.032;5.152;2023-07-31T10:56:08;100689.98;;;25.24;59.98
79538;BME280;68989;52.032;5.152;2023-07-31T10:58:37;100686.23;;;25.27;59.62
79538;BME280;68989;52.032;5.152;2023-07-31T11:01:05;100681.55;;;25.27;59.42
79538;BME280;68989;52.032;5.152;2023-07-31T11:03:50;100692.61;;;25.27;59.32
79538;BME280;68989;52.032;5.152;2023-07-31T11:06:18;100689.05;;;25.26;59.08
79538;BME280;68989;52.032;5.152;2023-07-31T11:08:47;100686.67;;;25.24;58.60
79538;BME280;68989;52.032;5.152;2023-07-31T11:11:18;100690.87;;;25.22;58.28
79538;BME280;68989;52.032;5.152;2023-07-31T11:13:46;100691.58;;;25.19;57.94
79538;BME280;68989;52.032;5.152;2023-07-31T11:16:14;100691.44;;;25.17;57.23
79538;BME280;68989;52.032;5.152;2023-07-31T11:18:43;100683.03;;;25.16;57.26
79538;BME280;68989;52.032;5.152;2023-07-31T11:21:13;100683.43;;;25.16;57.88
79538;BME280;68989;52.032;5.152;2023-07-31T11:23:40;100681.65;;;25.16;58.24
79538;BME280;68989;52.032;5.152;2023-07-31T11:26:07;100677.61;;;25.15;59.02
79538;BME280;68989;52.032;5.152;2023-07-31T11:28:35;100676.48;;;25.16;59.09
79538;BME280;68989;52.032;5.152;2023-07-31T11:31:02;100673.91;;;25.19;59.19
79538;BME280;68989;52.032;5.152;2023-07-31T11:33:30;100671.55;;;25.20;58.87
79538;BME280;68989;52.032;5.152;2023-07-31T11:35:57;100673.16;;;25.19;58.99
79538;BME280;68989;52.032;5.152;2023-07-31T11:38:27;100673.84;;;25.20;58.90
79538;BME280;68989;52.032;5.152;2023-07-31T11:40:55;100674.36;;;25.20;58.58
79538;BME280;68989;52.032;5.152;2023-07-31T11:43:23;100668.87;;;25.19;58.31
79538;BME280;68989;52.032;5.152;2023-07-31T11:45:52;100672.08;;;25.19;58.37
79538;BME280;68989;52.032;5.152;2023-07-31T11:48:21;100668.55;;;25.20;58.02
79538;BME280;68989;52.032;5.152;2023-07-31T11:50:51;100666.62;;;25.23;58.78
79538;BME280;68989;52.032;5.152;2023-07-31T11:53:22;100666.85;;;25.26;59.68
79538;BME280;68989;52.032;5.152;2023-07-31T11:55:52;100664.46;;;25.29;60.01
79538;BME280;68989;52.032;5.152;2023-07-31T11:58:20;100673.88;;;25.32;60.22
79538;BME280;68989;52.032;5.152;2023-07-31T12:00:48;100676.03;;;25.31;59.66
79538;BME280;68989;52.032;5.152;2023-07-31T12:03:15;100677.94;;;25.33;59.97
79538;BME280;68989;52.032;5.152;2023-07-31T12:05:43;100676.76;;;25.36;59.97
79538;BME280;68989;52.032;5.152;2023-07-31T12:08:11;100676.70;;;25.38;59.92
79538;BME280;68989;52.032;5.152;2023-07-31T12:10:39;100679.02;;;25.39;59.73
79538;BME280;68989;52.032;5.152;2023-07-31T12:13:08;100678.73;;;25.39;59.68
79538;BME280;68989;52.032;5.152;2023-07-31T12:15:37;100677.41;;;25.38;59.25
79538;BME280;68989;52.032;5.152;2023-07-31T12:18:05;100674.20;;;25.39;59.23
79538;BME280;68989;52.032;5.152;2023-07-31T12:20:33;100675.75;;;25.40;59.01
79538;BME280;68989;52.032;5.152;2023-07-31T12:23:01;100663.57;;;25.41;59.27
79538;BME280;68989;52.032;5.152;2023-07-31T12:25:30;100658.77;;;25.41;59.26
79538;BME280;68989;52.032;5.152;2023-07-31T12:28:04;100654.15;;;25.42;59.67
79538;BME280;68989;52.032;5.152;2023-07-31T12:30:33;100652.45;;;25.44;60.04
79538;BME280;68989;52.032;5.152;2023-07-31T12:33:03;100647.08;;;25.45;59.79
79538;BME280;68989;52.032;5.152;2023-07-31T12:35:36;100640.98;;;25.47;59.77
79538;BME280;68989;52.032;5.152;2023-07-31T12:38:04;100633.06;;;25.49;59.67
79538;BME280;68989;52.032;5.152;2023-07-31T12:40:31;100637.13;;;25.50;59.70
79538;BME280;68989;52.032;5.152;2023-07-31T12:43:01;100631.05;;;25.52;59.94
79538;BME280;68989;52.032;5.152;2023-07-31T12:45:28;100635.70;;;25.55;59.90
79538;BME280;68989;52.032;5.152;2023-07-31T12:47:55;100634.51;;;25.57;59.45
79538;BME280;68989;52.032;5.152;2023-07-31T12:50:23;100624.69;;;25.57;58.83
79538;BME280;68989;52.032;5.152;2023-07-31T12:52:52;100622.90;;;25.55;58.23
79538;BME280;68989;52.032;5.152;2023-07-31T12:55:20;100621.94;;;25.53;57.58